Time;durP1;ratioP1;P1;durP2;ratioP2;P2;SDS_P1;SDS_P2;PMS_P1;PMS_P2;Temp;Humidity;BMP_temperature;BMP_pressure;BME280_temperature;BME280_humidity;BME280_pressure;Samples;Min_cycle;Max_cycle;Signal;HPM_P1;HPM_P2
2022/01/30 13:51:20;;;;;;;;;5.00;5.00;;;;;16.45;50.00;103019.78;5025391;27;13460;-82
2022/01/30 13:53:46;;;;;;;;;2.00;2.00;;;;;16.21;51.24;103009.31;5025744;28;10691;-81
2022/01/30 13:56:16;;;;;;;;;3.00;3.00;;;;;16.19;50.98;103018.94;5027728;28;8809;-81
2022/01/30 13:58:43;;;;;;;;;4.00;3.00;;;;;16.19;52.45;103007.50;4999911;28;8828;-82
2022/01/30 14:01:19;;;;;;;;;3.50;2.00;;;;;16.16;51.08;103004.75;5003767;28;10687;-81
2022/01/30 14:03:47;;;;;;;;;3.75;3.00;;;;;16.14;52.78;103004.69;5025363;28;10353;-82
2022/01/30 14:06:24;;;;;;;;;1.50;1.50;;;;;16.18;51.76;103008.31;5027326;28;9618;-82
2022/01/30 14:08:58;;;;;;;;;4.00;2.00;;;;;16.14;51.19;103003.78;5024240;28;10593;-81
2022/01/30 14:11:28;;;;;;;;;0.00;0.00;;;;;16.15;51.20;103022.31;5014482;28;9352;-84
2022/01/30 14:13:59;;;;;;;;;2.50;1.75;;;;;16.17;51.22;103006.53;5007310;28;9379;-82
2022/01/30 14:16:41;;;;;;;;;2.75;2.75;;;;;16.12;51.22;103003.72;5007409;28;9358;-83
2022/01/30 14:19:23;;;;;;;;;2.50;2.50;;;;;16.12;51.52;102987.91;5005798;28;9383;-81
2022/01/30 14:21:53;;;;;;;;;3.25;2.00;;;;;16.16;52.00;102987.19;5007255;28;9441;-82
2022/01/30 14:24:24;;;;;;;;;1.33;0.67;;;;;16.17;53.87;102988.97;5024141;28;9416;-82
2022/01/30 14:27:10;;;;;;;;;1.75;1.00;;;;;16.15;52.91;102981.88;5023869;28;10083;-84
2022/01/30 14:29:36;;;;;;;;;1.50;1.50;;;;;16.15;52.64;102988.03;5004991;28;9527;-82
2022/01/30 14:32:20;;;;;;;;;2.00;2.00;;;;;16.14;53.25;102982.72;5020201;28;9424;-82
2022/01/30 14:34:46;;;;;;;;;3.00;2.00;;;;;16.13;52.65;102980.91;5017053;28;11418;-82
2022/01/30 14:37:11;;;;;;;;;4.33;3.00;;;;;16.10;53.35;102963.28;5007131;28;9577;-82
2022/01/30 14:39:37;;;;;;;;;3.33;1.33;;;;;16.10;53.16;102958.00;5006198;28;10791;-82
2022/01/30 14:42:08;;;;;;;;;3.50;2.50;;;;;16.12;52.29;102961.56;5006361;28;9564;-82
2022/01/30 14:44:34;;;;;;;;;1.25;1.25;;;;;16.12;53.37;102950.16;5006844;28;9434;-82
2022/01/30 14:46:59;;;;;;;;;2.75;2.00;;;;;16.14;54.32;102946.72;5015735;28;9351;-82
2022/01/30 14:49:25;;;;;;;;;1.67;1.67;;;;;16.13;52.46;102946.66;5026353;28;8828;-82
2022/01/30 14:51:50;;;;;;;;;1.00;0.00;;;;;16.12;52.21;102943.13;5047051;28;8887;-82
2022/01/30 14:54:17;;;;;;;;;1.00;1.00;;;;;16.00;53.20;102916.41;5038754;28;9459;-82
2022/01/30 14:56:42;;;;;;;;;1.00;1.00;;;;;16.11;53.27;102938.72;5025949;28;8810;-82
2022/01/30 14:59:11;;;;;;;;;3.00;1.67;;;;;16.11;53.17;102938.72;5024818;28;9359;-82
2022/01/30 15:01:36;;;;;;;;;3.33;2.00;;;;;16.08;53.40;102938.63;5019937;28;8807;-82
2022/01/30 15:04:02;;;;;;;;;2.00;1.00;;;;;16.11;53.01;102933.44;5012458;28;9275;-82
2022/01/30 15:06:27;;;;;;;;;1.67;1.67;;;;;16.10;53.83;102925.47;5012988;28;8815;-83
2022/01/30 15:08:52;;;;;;;;;2.75;2.75;;;;;16.08;53.40;102921.91;5025362;28;8816;-82
2022/01/30 15:11:18;;;;;;;;;1.00;1.00;;;;;16.09;53.32;102924.59;5031858;28;8879;-82
2022/01/30 15:13:45;;;;;;;;;1.33;1.00;;;;;16.10;54.41;102922.84;5019067;28;9013;-81
2022/01/30 15:16:20;;;;;;;;;0.67;0.67;;;;;16.12;53.47;102913.25;5025889;28;10588;-81
2022/01/30 15:18:45;;;;;;;;;1.00;1.00;;;;;16.10;53.31;102907.94;5019453;28;9310;-82
2022/01/30 15:21:13;;;;;;;;;1.00;1.00;;;;;16.08;53.43;102903.47;5028238;28;9520;-82
2022/01/30 15:23:39;;;;;;;;;3.00;1.67;;;;;16.14;54.08;102901.03;5022598;28;8989;-82
2022/01/30 15:26:05;;;;;;;;;2.00;1.00;;;;;16.15;54.49;102893.19;5011336;28;10934;-82
2022/01/30 15:28:31;;;;;;;;;2.33;1.33;;;;;16.15;54.12;102889.63;5022047;28;8827;-82
2022/01/30 15:30:56;;;;;;;;;2.00;1.25;;;;;16.12;53.54;102877.25;5014935;28;9307;-82
2022/01/30 15:33:22;;;;;;;;;3.00;1.50;;;;;16.13;54.53;102859.69;5012933;28;8787;-82
2022/01/30 15:35:49;;;;;;;;;2.00;2.00;;;;;16.13;53.94;102854.41;5013156;28;9702;-82
2022/01/30 15:38:15;;;;;;;;;2.00;1.00;;;;;16.14;54.72;102856.22;5017146;28;9592;-89
2022/01/30 15:40:41;;;;;;;;;0.67;0.67;;;;;16.10;53.04;102846.44;5015027;28;9437;-88
2022/01/30 15:43:08;;;;;;;;;1.67;1.33;;;;;16.15;53.58;102847.47;5021977;28;9480;-87
2022/01/30 15:51:04;;;;;;;;;1.25;1.25;;;;;16.14;54.09;102828.13;5027738;28;10573;-88
2022/01/30 15:53:29;;;;;;;;;1.00;1.00;;;;;16.11;53.81;102819.25;5022837;28;9368;-88
2022/01/30 15:55:55;;;;;;;;;1.33;1.33;;;;;16.09;54.06;102813.00;5025811;28;9713;-87
2022/01/30 15:58:21;;;;;;;;;0.50;0.50;;;;;16.10;53.89;102806.91;5019984;28;8799;-89
2022/01/30 16:00:47;;;;;;;;;1.75;1.75;;;;;16.11;53.80;102803.44;5021616;28;9615;-87
2022/01/30 16:03:15;;;;;;;;;1.50;1.50;;;;;16.11;53.99;102792.88;5034362;28;9699;-87
2022/01/30 16:05:40;;;;;;;;;1.00;1.00;;;;;16.11;53.86;102796.41;5028614;28;8818;-88
2022/01/30 16:08:06;;;;;;;;;1.00;1.00;;;;;16.07;53.47;102778.72;5029240;28;9602;-90
2022/01/30 16:10:34;;;;;;;;;1.00;0.75;;;;;16.12;53.62;102776.25;5033170;28;11150;-78
2022/01/30 16:15:36;;;;;;;;;2.25;1.00;;;;;16.11;53.75;102761.28;5015141;28;10187;-84
2022/01/30 16:18:02;;;;;;;;;0.25;0.25;;;;;16.06;54.00;102757.59;5017930;28;11413;-84
2022/01/30 16:20:28;;;;;;;;;1.00;1.00;;;;;16.15;54.23;102765.78;5016948;28;9388;-84
2022/01/30 16:22:53;;;;;;;;;1.00;1.00;;;;;16.12;54.15;102761.28;5013420;28;8814;-86
2022/01/30 16:25:18;;;;;;;;;3.00;3.00;;;;;16.11;53.37;102762.16;5015131;28;8881;-83
2022/01/30 16:27:45;;;;;;;;;2.50;1.00;;;;;16.10;54.41;102754.22;5012072;28;8823;-84
2022/01/30 16:30:11;;;;;;;;;2.50;1.50;;;;;16.11;54.32;102751.63;5030158;28;8831;-85
2022/01/30 16:32:39;;;;;;;;;1.50;1.00;;;;;16.07;55.32;102744.47;5033112;28;9490;-85
2022/01/30 16:35:07;;;;;;;;;1.00;1.00;;;;;16.10;53.83;102744.56;5024565;28;9394;-85
2022/01/30 16:37:35;;;;;;;;;1.00;0.33;;;;;16.08;54.22;102740.09;5021694;28;9444;-86
2022/01/30 16:40:01;;;;;;;;;1.67;1.00;;;;;16.01;54.34;102725.84;5027292;28;9433;-86
2022/01/30 16:42:28;;;;;;;;;2.25;2.25;;;;;16.05;54.49;102730.34;5023331;28;9365;-84
2022/01/30 16:45:02;;;;;;;;;0.67;0.67;;;;;16.05;53.96;102735.63;5013487;28;8794;-83
2022/01/30 16:47:33;;;;;;;;;1.50;0.50;;;;;16.06;54.04;102734.78;5012633;28;9339;-84
2022/01/30 16:49:58;;;;;;;;;1.00;1.00;;;;;16.05;54.92;102716.28;5011458;28;9371;-84
2022/01/30 16:52:24;;;;;;;;;2.00;1.00;;;;;16.08;54.46;102709.38;5012193;28;9455;-85
2022/01/30 16:54:54;;;;;;;;;1.50;0.50;;;;;16.14;54.53;102720.09;5011523;28;8861;-85
2022/01/30 16:57:19;;;;;;;;;2.00;2.00;;;;;16.13;53.96;102720.03;5012519;28;9490;-85
2022/01/30 16:59:45;;;;;;;;;1.00;1.00;;;;;16.04;54.14;102710.16;5014072;28;9118;-85
2022/01/30 17:02:12;;;;;;;;;1.50;1.50;;;;;16.02;54.76;102708.28;5012448;28;11078;-87
2022/01/30 17:04:40;;;;;;;;;2.00;2.00;;;;;16.09;54.46;102708.50;5012479;28;8795;-85
2022/01/30 17:07:05;;;;;;;;;0.33;0.00;;;;;16.10;54.33;102709.41;5010826;28;9607;-86
2022/01/30 17:09:36;;;;;;;;;3.67;3.00;;;;;16.10;54.64;102706.78;5010674;28;9499;-86
2022/01/30 17:12:14;;;;;;;;;2.75;2.75;;;;;16.09;54.79;102704.97;5011431;28;8799;-86
2022/01/30 17:14:40;;;;;;;;;2.00;2.00;;;;;16.11;53.83;102704.19;5014935;28;9459;-86
2022/01/30 17:17:05;;;;;;;;;4.00;3.00;;;;;16.08;54.46;102698.84;5029575;28;9438;-87
2022/01/30 17:19:31;;;;;;;;;3.25;2.00;;;;;16.16;54.45;102699.94;5030824;28;8812;-85
2022/01/30 17:21:56;;;;;;;;;2.75;2.00;;;;;16.14;54.23;102685.84;5030883;28;8805;-86
2022/01/30 17:24:25;;;;;;;;;3.00;3.00;;;;;16.14;53.78;102680.56;5022730;28;8889;-85
2022/01/30 17:26:52;;;;;;;;;2.50;2.00;;;;;16.16;53.29;102681.47;5020718;28;8800;-85
2022/01/30 17:29:18;;;;;;;;;2.50;2.50;;;;;16.13;54.29;102673.50;5026792;28;9774;-87
2022/01/30 17:31:43;;;;;;;;;3.75;3.00;;;;;16.15;53.74;102673.56;5017557;28;9606;-86
2022/01/30 17:34:09;;;;;;;;;2.50;2.50;;;;;16.15;53.85;102665.66;5029998;28;8809;-88
2022/01/30 17:36:34;;;;;;;;;3.00;3.00;;;;;16.18;54.60;102660.47;5017230;28;8914;-87
2022/01/30 17:39:06;;;;;;;;;4.00;4.00;;;;;16.16;53.70;102659.53;5010449;28;8814;-86
2022/01/30 17:41:32;;;;;;;;;3.00;2.75;;;;;16.15;53.44;102658.63;5012682;28;8798;-86
2022/01/30 17:43:58;;;;;;;;;4.00;3.50;;;;;16.11;53.61;102656.78;5012158;28;9485;-86
2022/01/30 17:46:23;;;;;;;;;2.25;2.00;;;;;16.16;53.66;102657.75;5011608;28;9250;-85
2022/01/30 17:48:49;;;;;;;;;2.50;2.50;;;;;16.18;53.53;102660.47;5012573;28;9563;-86
2022/01/30 17:51:15;;;;;;;;;1.50;1.50;;;;;16.16;54.29;102646.38;5011156;28;8814;-85
2022/01/30 17:53:43;;;;;;;;;3.50;2.25;;;;;15.92;53.34;102613.22;5011291;28;9562;-86
2022/01/30 17:56:08;;;;;;;;;5.00;4.00;;;;;16.17;53.09;102645.47;5011941;28;8889;-86
2022/01/30 17:58:34;;;;;;;;;3.75;2.75;;;;;16.18;54.15;102642.91;5012010;28;9588;-87
2022/01/30 18:00:59;;;;;;;;;2.00;2.00;;;;;16.18;53.19;102649.91;5011883;28;8795;-87
2022/01/30 18:03:26;;;;;;;;;3.50;3.50;;;;;16.10;53.12;102643.53;5000629;23;8875;-85
2022/01/30 18:05:51;;;;;;;;;2.00;2.00;;;;;16.09;53.32;102626.84;4991747;28;8774;-84
2022/01/30 18:08:16;;;;;;;;;3.25;3.25;;;;;16.15;53.58;102632.28;4990359;28;9555;-86
2022/01/30 18:13:20;;;;;;;;;3.00;3.00;;;;;16.12;53.11;102644.50;5301317;22;8861;-87
2022/01/30 18:15:52;;;;;;;;;2.25;2.00;;;;;16.12;53.14;102640.09;5051987;28;9693;-88
2022/01/30 18:18:18;;;;;;;;;3.75;3.75;;;;;16.04;53.52;102612.66;5172918;22;9631;-87
2022/01/30 18:20:44;;;;;;;;;4.00;3.00;;;;;16.11;54.05;102616.34;5046573;28;9346;-87
2022/01/30 18:23:12;;;;;;;;;1.75;1.50;;;;;16.09;52.64;102618.03;5050874;28;9481;-88
2022/01/30 18:25:40;;;;;;;;;3.00;3.00;;;;;16.13;52.81;102614.63;5035171;28;8903;-86
2022/01/30 18:28:06;;;;;;;;;2.50;2.25;;;;;16.10;52.61;102593.47;5047513;28;9643;-85
2022/01/30 18:43:30;;;;;;;;;3.00;2.00;;;;;16.10;52.95;102575.03;5025565;28;9494;-87
2022/01/30 18:45:56;;;;;;;;;2.00;2.00;;;;;16.08;52.62;102577.66;5027592;28;9486;-88
2022/01/30 18:48:21;;;;;;;;;3.00;2.00;;;;;16.10;52.59;102582.94;5027521;28;9585;-87
2022/01/30 18:50:46;;;;;;;;;2.25;2.25;;;;;16.08;53.62;102574.13;5031015;28;8827;-88
2022/01/30 18:53:15;;;;;;;;;2.25;2.25;;;;;16.07;52.30;102556.50;5029480;28;8777;-86
2022/01/30 18:55:44;;;;;;;;;2.75;2.75;;;;;16.04;52.85;102544.16;4996205;28;8854;-86
2022/01/30 18:58:13;;;;;;;;;2.50;2.50;;;;;16.04;52.71;102541.53;4996231;28;9482;-86
2022/01/30 19:03:15;;;;;;;;;3.75;2.50;;;;;16.08;53.17;102526.69;5254249;22;9566;-87
2022/01/30 19:05:48;;;;;;;;;3.50;3.50;;;;;16.00;52.21;102521.22;5044961;28;9403;-89
2022/01/30 19:08:14;;;;;;;;;3.50;2.00;;;;;15.93;52.09;102504.34;5040760;28;9611;-88
2022/01/30 19:10:40;;;;;;;;;3.50;3.00;;;;;16.08;52.39;102502.97;5035407;28;9421;-86
2022/01/30 19:13:06;;;;;;;;;1.00;1.00;;;;;16.11;51.96;102497.78;5034766;28;8776;-86
2022/01/30 19:15:32;;;;;;;;;1.00;1.00;;;;;16.17;52.41;102493.53;5050525;28;8785;-83
2022/01/30 19:18:07;;;;;;;;;2.50;2.50;;;;;16.16;52.64;102478.56;5045098;28;8788;-87
2022/01/30 19:23:00;;;;;;;;;2.00;2.00;;;;;16.07;52.41;102451.13;5272112;22;9589;-84
2022/01/30 19:28:03;;;;;;;;;4.00;4.00;;;;;16.05;52.54;102416.81;5653741;22;9430;-85
2022/01/30 19:30:28;;;;;;;;;3.00;2.00;;;;;16.03;52.44;102397.47;5027233;28;9428;-84
2022/01/30 19:32:54;;;;;;;;;3.50;2.25;;;;;16.07;52.57;102396.69;5032958;28;9355;-86
2022/01/30 19:35:19;;;;;;;;;0.75;0.75;;;;;16.04;52.72;102388.72;5033235;28;8806;-86
2022/01/30 19:37:44;;;;;;;;;2.00;1.00;;;;;16.06;52.49;102365.03;5032463;28;8783;-84
2022/01/30 19:40:10;;;;;;;;;1.25;1.25;;;;;16.06;52.65;102368.56;5031849;28;8820;-84
2022/01/30 19:42:37;;;;;;;;;1.33;1.33;;;;;16.00;52.77;102349.97;5033578;28;8991;-86
2022/01/30 19:45:07;;;;;;;;;1.50;1.50;;;;;16.05;52.84;102348.31;5032614;28;8974;-84
2022/01/30 19:47:39;;;;;;;;;6.00;2.75;;;;;16.04;52.54;102321.97;5030126;28;9365;-84
2022/01/30 19:50:08;;;;;;;;;2.50;2.50;;;;;16.03;52.45;102310.53;5025766;28;9516;-86
2022/01/30 19:52:33;;;;;;;;;3.25;3.25;;;;;16.01;52.87;102283.25;5035026;28;9515;-86
2022/01/30 19:55:05;;;;;;;;;2.00;1.00;;;;;16.03;52.61;102286.81;5029297;28;9538;-83
2022/01/30 19:57:30;;;;;;;;;1.00;1.00;;;;;16.02;52.60;102287.66;5031560;28;8764;-84
2022/01/30 20:45:37;;;;;;;;;1.00;1.00;;;;;15.85;52.17;102171.44;5962534;23;10192;-83
2022/01/30 20:48:02;;;;;;;;;3.00;2.50;;;;;15.93;52.18;102166.31;4992950;28;9353;-83
2022/01/30 20:50:30;;;;;;;;;5.00;3.00;;;;;15.88;52.12;102170.59;4991536;28;8848;-84
2022/01/30 20:52:58;;;;;;;;;1.00;1.00;;;;;15.95;51.98;102180.41;4993431;28;8824;-83
2022/01/30 21:05:45;;;;;;;;;4.00;3.00;;;;;15.95;52.35;102136.50;5725165;23;9487;-84
2022/01/30 21:08:13;;;;;;;;;1.00;1.00;;;;;15.87;52.49;102095.06;4992151;28;10246;-84
2022/01/30 21:10:41;;;;;;;;;2.75;2.75;;;;;15.97;52.45;102106.69;4991873;28;9441;-84
2022/01/30 21:13:13;;;;;;;;;3.75;2.00;;;;;15.95;52.19;102089.09;4992065;28;9396;-85
2022/01/30 21:15:38;;;;;;;;;2.25;2.00;;;;;15.92;52.05;102080.25;4991503;28;9415;-84
2022/01/30 21:18:04;;;;;;;;;2.75;1.25;;;;;15.95;52.20;102080.31;5006606;23;9533;-85
2022/01/30 21:23:05;;;;;;;;;1.00;1.00;;;;;15.98;51.98;102095.28;5250485;23;8874;-84
2022/01/30 21:25:30;;;;;;;;;1.25;1.25;;;;;15.96;52.23;102103.16;5011776;28;9286;-85
2022/01/30 21:27:56;;;;;;;;;2.00;2.00;;;;;15.90;52.31;102085.47;5011600;28;8794;-86
2022/01/30 21:30:24;;;;;;;;;2.25;2.00;;;;;15.94;52.23;102083.78;4998468;28;8812;-85
2022/01/30 21:32:49;;;;;;;;;2.50;1.50;;;;;15.91;52.08;102074.09;4991642;28;8802;-84
2022/01/30 21:35:16;;;;;;;;;3.50;2.75;;;;;15.98;52.23;102066.28;4991691;28;9475;-84
2022/01/30 21:37:42;;;;;;;;;3.00;2.00;;;;;15.94;51.93;102062.72;4991467;28;8780;-84
2022/01/30 21:40:09;;;;;;;;;2.00;2.00;;;;;15.95;51.95;102062.75;4991616;28;9546;-84
2022/01/30 21:42:40;;;;;;;;;3.00;3.00;;;;;15.87;51.92;102045.03;4991479;28;9647;-86
2022/01/30 21:45:09;;;;;;;;;1.75;1.50;;;;;15.90;51.93;102026.66;4991500;28;9576;-85
2022/01/30 21:47:36;;;;;;;;;4.00;2.00;;;;;15.91;51.96;102004.72;4992518;28;9485;-85
2022/01/30 21:50:01;;;;;;;;;2.00;1.00;;;;;15.92;51.95;101988.06;4992244;28;9522;-85
2022/01/30 21:52:27;;;;;;;;;3.00;2.00;;;;;15.93;51.95;101971.41;4991071;28;9430;-85
2022/01/30 21:54:52;;;;;;;;;1.00;1.00;;;;;15.89;51.91;101959.06;4991545;28;8768;-86
2022/01/30 21:57:18;;;;;;;;;4.00;3.00;;;;;15.92;52.09;101951.19;4991230;28;8768;-85
2022/01/30 21:59:43;;;;;;;;;2.50;2.50;;;;;15.88;51.92;101907.22;4991489;28;8795;-85
2022/01/30 22:02:09;;;;;;;;;3.75;3.00;;;;;15.92;51.75;101899.41;4991456;28;9614;-82
2022/01/30 22:04:37;;;;;;;;;2.75;2.00;;;;;15.90;51.96;101872.16;4991500;28;8808;-85
2022/01/30 22:07:06;;;;;;;;;1.25;1.25;;;;;15.85;51.85;101855.41;4991787;28;8783;-86
2022/01/30 22:09:33;;;;;;;;;1.50;1.50;;;;;15.88;51.76;101850.19;4991821;28;9599;-85
2022/01/30 22:12:02;;;;;;;;;2.00;2.00;;;;;15.91;51.72;101820.38;5393553;23;9612;-87
2022/01/30 22:14:51;;;;;;;;;2.00;2.00;;;;;15.91;51.83;101804.56;4995520;28;9480;-86
2022/01/30 22:17:17;;;;;;;;;2.00;2.00;;;;;15.88;51.86;101810.69;4996040;28;9576;-85
2022/01/30 22:19:42;;;;;;;;;1.75;1.75;;;;;15.90;51.41;101805.44;4996355;28;10325;-85
2022/01/30 22:22:08;;;;;;;;;2.00;2.00;;;;;15.55;51.73;101732.94;5017645;23;8834;-83
2022/01/30 22:24:51;;;;;;;;;3.25;2.25;;;;;15.80;51.62;101766.66;5015504;28;8848;-86
2022/01/30 22:27:16;;;;;;;;;2.50;2.50;;;;;15.72;51.87;101763.03;5014709;28;8785;-86
2022/01/30 22:29:42;;;;;;;;;4.00;3.25;;;;;15.92;51.79;101762.47;5008282;28;9587;-85
2022/01/30 22:32:07;;;;;;;;;2.00;2.00;;;;;15.94;51.60;101739.66;4995429;28;8815;-86
2022/01/30 22:34:33;;;;;;;;;3.00;2.00;;;;;15.93;51.77;101737.88;4995370;28;8792;-85
2022/01/30 22:36:59;;;;;;;;;2.00;2.00;;;;;15.92;51.76;101725.59;4995698;28;9713;-86
2022/01/30 22:39:24;;;;;;;;;3.25;3.25;;;;;15.94;51.59;101737.03;4995110;28;9460;-87
2022/01/30 22:41:49;;;;;;;;;1.75;1.75;;;;;15.93;51.81;101737.03;4994638;28;8776;-85
2022/01/30 22:44:15;;;;;;;;;2.00;2.00;;;;;15.98;51.69;101750.22;4995262;28;8879;-89
2022/01/30 22:46:40;;;;;;;;;2.75;2.50;;;;;15.93;51.63;101737.88;4997734;28;8783;-86
2022/01/30 22:49:05;;;;;;;;;2.25;2.25;;;;;15.98;51.72;101718.63;4996875;28;8776;-85
2022/01/30 22:51:30;;;;;;;;;2.50;2.00;;;;;15.93;51.86;101711.53;4995313;28;8811;-86
2022/01/30 22:53:56;;;;;;;;;2.25;2.25;;;;;15.97;51.90;101691.44;4994422;28;8796;-87
2022/01/30 22:56:21;;;;;;;;;2.50;2.00;;;;;15.93;51.86;101676.44;4995510;28;9563;-86
2022/01/30 22:58:49;;;;;;;;;1.00;1.00;;;;;15.95;51.70;101672.06;4995510;28;8811;-84
2022/01/30 23:01:15;;;;;;;;;3.25;2.50;;;;;15.90;51.57;101647.41;4994056;28;8784;-85
2022/01/30 23:03:41;;;;;;;;;2.00;2.00;;;;;15.95;51.59;101653.63;4994836;28;9564;-85
2022/01/30 23:06:06;;;;;;;;;2.00;2.00;;;;;15.89;51.95;101629.88;4994484;28;9417;-85
2022/01/30 23:08:31;;;;;;;;;2.50;2.50;;;;;15.93;51.71;101616.72;4999336;28;9586;-85
2022/01/30 23:10:56;;;;;;;;;6.00;3.75;;;;;15.90;51.54;101593.00;4997421;28;8909;-85
2022/01/30 23:13:22;;;;;;;;;2.25;2.25;;;;;15.90;51.91;101608.81;4994698;28;8772;-85
2022/01/30 23:15:47;;;;;;;;;2.00;2.00;;;;;15.91;51.92;101593.88;4994385;28;8939;-85
2022/01/30 23:18:12;;;;;;;;;3.25;2.50;;;;;15.90;51.60;101592.13;4994896;28;8776;-85
2022/01/30 23:20:38;;;;;;;;;3.50;3.50;;;;;15.95;51.57;101604.50;4994316;28;9458;-85
2022/01/30 23:23:03;;;;;;;;;3.00;2.00;;;;;15.85;51.45;101578.91;4994101;28;8784;-86
2022/01/30 23:25:30;;;;;;;;;2.25;2.00;;;;;15.90;51.53;101574.56;4994673;28;8776;-87
2022/01/30 23:27:58;;;;;;;;;3.25;3.00;;;;;15.89;52.07;101567.56;4994563;28;8796;-86
2022/01/30 23:30:26;;;;;;;;;2.00;2.00;;;;;15.87;51.32;101529.78;4994244;28;9510;-86
2022/01/30 23:32:52;;;;;;;;;4.75;4.25;;;;;15.83;51.61;101506.03;4994776;28;9593;-86
2022/01/30 23:35:19;;;;;;;;;3.00;2.00;;;;;15.89;51.74;101512.25;4993846;28;9585;-86
2022/01/30 23:37:50;;;;;;;;;2.25;2.25;;;;;15.89;51.72;101500.84;4994101;28;8879;-85
2022/01/30 23:40:19;;;;;;;;;1.75;1.25;;;;;15.91;51.84;101492.06;4994168;28;9579;-86
2022/01/30 23:42:45;;;;;;;;;1.75;1.75;;;;;15.82;51.59;101476.16;4993976;28;9631;-86
2022/01/30 23:45:20;;;;;;;;;2.00;2.00;;;;;15.84;51.57;101455.13;4993332;28;9567;-85
2022/01/30 23:47:49;;;;;;;;;2.50;2.50;;;;;15.79;51.64;101446.28;4994043;28;9659;-85
2022/01/30 23:50:16;;;;;;;;;4.00;3.25;;;;;15.87;51.66;101439.34;4993012;28;9568;-85
2022/01/30 23:52:42;;;;;;;;;2.75;2.75;;;;;15.89;51.71;101446.44;4993853;28;9473;-84
2022/01/30 23:55:08;;;;;;;;;2.50;2.50;;;;;15.84;51.99;101437.59;4993671;28;9619;-83
2022/01/30 23:57:34;;;;;;;;;2.00;2.00;;;;;15.89;51.67;101414.81;4993138;28;8787;-82
